Codora, California
Current Conditions -  °F | °C
As of 2:53 PM on Saturday 20 Dec 2014 (Local Time) from KOVE Reporting Station
Light Rain Light Rain  
Wind Chill: 56°   Ceiling: 5000
Heat Index: 56°   Visibility: 10mi
Dew Point: 51°   Wind: 10mph
Humidity: 84%   Direction: 140°SE
Pressure: 30.19"   Gusts: NA
Location:  39.438°N, 122.067°W
Report Text: KOVE 202253Z AUTO 14009KT 10SM -RA FEW013 BKN050 OVC070 13/11 A3019 RMK AO2 RAB53 SLP225 P0000 T01330106
Loading
Personal Weather Stations






























Interactive Weather Map New forecast layout! Learn more

10-Day Weather Forecast

Advertisements
Track Severe Weather on mobile